Time;durP1;ratioP1;P1;durP2;ratioP2;P2;SDS_P1;SDS_P2;PMS_P1;PMS_P2;Temp;Humidity;BMP_temperature;BMP_pressure;BME280_temperature;BME280_humidity;BME280_pressure;Samples;Min_cycle;Max_cycle;Signal;HPM_P1;HPM_P2
2023/09/08 00:01:49;;;;;;;5.72;3.10;;;19.10;99.90;;;;;;5041099;28;20045;-51
2023/09/08 00:04:15;;;;;;;6.45;3.72;;;19.00;99.90;;;;;;5040997;28;20044;-49
2023/09/08 00:06:41;;;;;;;4.85;2.92;;;19.00;99.90;;;;;;5022886;28;20498;-54
2023/09/08 00:09:07;;;;;;;6.35;3.00;;;19.00;99.90;;;;;;5040904;28;20033;-48
2023/09/08 00:11:33;;;;;;;6.30;3.28;;;19.00;99.90;;;;;;5040574;28;20204;-49
2023/09/08 00:13:58;;;;;;;6.43;3.63;;;19.00;99.90;;;;;;5022284;28;20056;-50
2023/09/08 00:16:24;;;;;;;8.32;4.88;;;18.90;99.90;;;;;;5040381;28;20025;-51
2023/09/08 00:18:50;;;;;;;5.47;3.30;;;18.90;99.90;;;;;;5040422;28;20038;-50
2023/09/08 00:21:16;;;;;;;6.82;3.40;;;18.80;99.90;;;;;;5022421;28;20103;-51
2023/09/08 00:23:41;;;;;;;5.72;3.40;;;18.80;99.90;;;;;;5041300;28;20041;-50
2023/09/08 00:26:07;;;;;;;7.32;3.95;;;18.70;99.90;;;;;;5042225;28;20041;-49
2023/09/08 00:28:35;;;;;;;5.28;3.30;;;18.70;99.90;;;;;;5041726;28;20060;-49
2023/09/08 00:31:01;;;;;;;5.97;3.58;;;18.60;99.90;;;;;;5023751;28;20021;-50
2023/09/08 00:33:26;;;;;;;7.15;3.80;;;18.60;99.90;;;;;;5042897;28;20037;-52
2023/09/08 00:35:53;;;;;;;7.00;3.20;;;18.50;99.90;;;;;;5043254;28;20087;-52
2023/09/08 00:38:19;;;;;;;6.45;3.65;;;18.50;99.90;;;;;;5025422;28;20034;-52
2023/09/08 00:40:45;;;;;;;6.05;3.63;;;18.50;99.90;;;;;;5024288;28;20113;-51
2023/09/08 00:43:10;;;;;;;5.22;3.25;;;18.40;99.90;;;;;;5007903;28;20033;-53
2023/09/08 00:45:40;;;;;;;6.30;3.53;;;18.40;99.90;;;;;;5021960;28;20034;-52
2023/09/08 00:48:06;;;;;;;7.28;3.92;;;18.30;99.90;;;;;;5040086;28;20047;-55
2023/09/08 00:50:32;;;;;;;8.05;3.92;;;18.30;99.90;;;;;;5020464;28;20029;-55
2023/09/08 00:52:58;;;;;;;8.23;3.28;;;18.30;99.90;;;;;;5020429;28;20423;-55
2023/09/08 00:55:24;;;;;;;6.85;3.72;;;18.20;99.90;;;;;;5038233;28;20041;-54
2023/09/08 00:57:50;;;;;;;5.47;3.28;;;18.20;99.90;;;;;;5020231;28;20038;-54
2023/09/08 01:00:16;;;;;;;5.50;3.55;;;18.20;99.90;;;;;;5019340;28;20433;-54
2023/09/08 01:02:43;;;;;;;6.68;3.60;;;18.20;99.90;;;;;;5038111;28;20029;-52
2023/09/08 01:05:09;;;;;;;5.68;3.20;;;18.10;99.90;;;;;;5038665;28;20036;-53
2023/09/08 01:07:35;;;;;;;7.25;3.42;;;18.10;99.90;;;;;;5038260;28;20499;-53
2023/09/08 01:10:06;;;;;;;4.88;3.20;;;18.00;99.90;;;;;;5038523;28;20445;-52
2023/09/08 01:12:33;;;;;;;9.70;3.83;;;18.00;99.90;;;;;;5037684;28;20122;-54
2023/09/08 01:14:58;;;;;;;5.97;3.72;;;17.90;99.90;;;;;;5020211;28;20053;-53
2023/09/08 01:17:25;;;;;;;7.00;3.75;;;17.90;99.90;;;;;;5020354;28;20040;-53
2023/09/08 01:19:55;;;;;;;8.88;3.63;;;17.80;99.90;;;;;;5004106;28;20042;-54
2023/09/08 01:22:24;;;;;;;7.38;3.58;;;17.80;99.90;;;;;;5037530;28;20025;-54
2023/09/08 01:24:58;;;;;;;;;;;17.80;99.90;;;;;;5038352;28;20052;-55
2023/09/08 01:27:25;;;;;;;6.20;3.85;;;17.70;99.90;;;;;;5020117;28;20233;-52
2023/09/08 01:29:53;;;;;;;6.40;3.55;;;17.70;99.90;;;;;;5037909;28;20500;-54
2023/09/08 01:32:19;;;;;;;6.43;3.55;;;17.70;99.90;;;;;;5019649;28;20033;-50
2023/09/08 01:34:45;;;;;;;6.50;3.67;;;17.70;99.90;;;;;;5020484;28;20037;-53
2023/09/08 01:37:11;;;;;;;5.70;3.53;;;17.60;99.90;;;;;;5020330;28;20449;-54
2023/09/08 01:39:37;;;;;;;5.88;3.60;;;17.60;99.90;;;;;;5003593;28;20029;-54
2023/09/08 01:42:03;;;;;;;7.43;3.90;;;17.50;99.90;;;;;;5020148;28;20047;-55
2023/09/08 01:44:28;;;;;;;6.90;3.90;;;17.50;99.90;;;;;;5019505;28;20277;-53
2023/09/08 01:46:56;;;;;;;5.45;3.65;;;17.50;99.90;;;;;;5018291;28;20037;-55
2023/09/08 01:49:25;;;;;;;5.63;3.47;;;17.50;99.90;;;;;;5019497;28;20128;-54
2023/09/08 01:51:52;;;;;;;7.43;3.70;;;17.40;99.90;;;;;;5036591;28;20100;-53
2023/09/08 01:54:17;;;;;;;7.78;3.95;;;17.40;99.90;;;;;;5036749;28;20068;-55
2023/09/08 01:56:43;;;;;;;7.13;3.72;;;17.40;99.90;;;;;;5019434;28;20379;-52
2023/09/08 01:59:08;;;;;;;9.02;3.80;;;17.30;99.90;;;;;;5002853;28;20057;-53
2023/09/08 02:01:34;;;;;;;6.97;3.90;;;17.30;99.90;;;;;;5019219;28;20034;-53
2023/09/08 02:03:59;;;;;;;8.00;3.50;;;17.30;99.90;;;;;;5018810;28;20055;-54
2023/09/08 02:06:25;;;;;;;8.40;3.63;;;17.20;99.90;;;;;;5019280;28;20112;-52
2023/09/08 02:08:52;;;;;;;7.65;3.55;;;17.20;99.90;;;;;;5018926;28;20041;-51
2023/09/08 02:11:17;;;;;;;5.95;3.55;;;17.10;99.90;;;;;;5036067;28;20026;-55
2023/09/08 02:13:43;;;;;;;7.32;3.83;;;17.10;99.90;;;;;;5036379;28;20385;-55
2023/09/08 02:16:14;;;;;;;6.07;3.80;;;17.10;99.90;;;;;;5019144;28;20033;-54
2023/09/08 02:18:41;;;;;;;6.10;3.50;;;17.00;99.90;;;;;;5018889;28;20478;-51
2023/09/08 02:21:06;;;;;;;7.50;3.75;;;17.00;99.90;;;;;;5018351;28;20049;-53
2023/09/08 02:23:32;;;;;;;10.52;4.07;;;16.90;99.90;;;;;;5018639;28;20390;-53
2023/09/08 02:25:58;;;;;;;7.60;4.10;;;17.00;99.90;;;;;;5018532;28;20489;-52
2023/09/08 02:28:25;;;;;;;6.55;4.05;;;16.90;99.90;;;;;;5018647;28;20096;-52
2023/09/08 02:30:51;;;;;;;7.30;3.47;;;16.90;99.90;;;;;;5002700;28;20022;-55
2023/09/08 02:33:17;;;;;;;8.48;3.80;;;16.90;99.90;;;;;;5035823;28;20033;-54
2023/09/08 02:35:43;;;;;;;6.15;3.45;;;16.80;99.90;;;;;;5018689;28;20444;-55
2023/09/08 02:38:09;;;;;;;8.43;3.88;;;16.90;99.90;;;;;;5002986;28;20033;-53
2023/09/08 02:40:36;;;;;;;6.50;3.50;;;16.90;99.90;;;;;;5019046;28;20060;-52
2023/09/08 02:43:03;;;;;;;6.85;3.60;;;16.90;99.90;;;;;;5019010;28;20033;-51
2023/09/08 02:45:29;;;;;;;9.32;4.35;;;16.90;99.90;;;;;;5018248;28;20025;-53
2023/09/08 02:47:55;;;;;;;6.53;3.97;;;16.80;99.90;;;;;;5018883;28;20149;-52
2023/09/08 02:50:21;;;;;;;6.85;3.75;;;16.80;99.90;;;;;;5018873;28;20029;-50
2023/09/08 02:52:47;;;;;;;7.03;3.20;;;16.80;99.90;;;;;;5036486;28;20027;-53
2023/09/08 02:55:13;;;;;;;10.05;3.83;;;16.80;99.90;;;;;;5018781;28;20033;-53
2023/09/08 02:57:39;;;;;;;6.20;3.67;;;16.80;99.90;;;;;;5002154;28;20072;-52
2023/09/08 03:00:09;;;;;;;6.80;3.58;;;16.80;99.90;;;;;;5036296;28;20043;-55
2023/09/08 03:02:35;;;;;;;8.48;3.90;;;16.70;99.90;;;;;;5017992;28;20033;-55
2023/09/08 03:05:01;;;;;;;6.70;3.83;;;16.70;99.90;;;;;;5018532;28;20049;-50
2023/09/08 03:07:28;;;;;;;8.60;3.92;;;16.70;99.90;;;;;;5018033;28;20025;-55
2023/09/08 03:09:53;;;;;;;6.90;4.40;;;16.70;99.90;;;;;;5036002;28;20026;-51
2023/09/08 03:12:20;;;;;;;7.05;3.55;;;16.70;99.90;;;;;;5002230;28;20065;-55
2023/09/08 03:14:46;;;;;;;7.35;4.05;;;16.70;99.90;;;;;;5036119;28;20030;-55
2023/09/08 03:17:12;;;;;;;6.88;3.85;;;16.70;99.90;;;;;;5002066;28;20128;-52
2023/09/08 03:19:39;;;;;;;6.95;3.67;;;16.70;99.90;;;;;;5035592;28;20109;-53
2023/09/08 03:22:06;;;;;;;6.97;3.63;;;16.60;99.90;;;;;;5018082;28;20034;-56
2023/09/08 03:24:31;;;;;;;6.22;3.53;;;16.60;99.90;;;;;;5018110;28;20486;-51
2023/09/08 03:26:58;;;;;;;7.88;4.10;;;16.60;99.90;;;;;;5036122;28;20482;-54
2023/09/08 03:29:23;;;;;;;7.45;3.60;;;16.60;99.90;;;;;;5035852;28;20078;-55
2023/09/08 03:31:49;;;;;;;6.07;3.30;;;16.60;99.90;;;;;;5017538;28;20030;-54
2023/09/08 03:34:15;;;;;;;6.70;3.75;;;16.50;99.90;;;;;;5017885;28;20203;-55
2023/09/08 03:36:41;;;;;;;6.15;3.63;;;16.50;99.90;;;;;;5018216;28;20065;-52
2023/09/08 03:39:09;;;;;;;6.75;3.90;;;16.50;99.90;;;;;;5017718;28;20052;-54
2023/09/08 03:41:35;;;;;;;6.95;4.25;;;16.50;99.90;;;;;;5017509;28;20048;-53
2023/09/08 03:44:00;;;;;;;6.18;3.80;;;16.40;99.90;;;;;;5017563;28;20037;-53
2023/09/08 03:46:26;;;;;;;7.28;3.85;;;16.40;99.90;;;;;;5034912;28;20029;-53
2023/09/08 03:48:54;;;;;;;9.10;4.40;;;16.40;99.90;;;;;;5017881;28;20088;-53
2023/09/08 03:51:21;;;;;;;7.43;4.47;;;16.30;99.90;;;;;;5017651;28;20036;-54
2023/09/08 03:53:47;;;;;;;8.23;3.75;;;16.30;99.90;;;;;;5035604;28;20036;-53
2023/09/08 03:56:12;;;;;;;8.60;4.10;;;16.30;99.90;;;;;;5035467;28;20030;-56
2023/09/08 03:58:38;;;;;;;6.63;3.67;;;16.30;99.90;;;;;;5017988;28;20434;-54
2023/09/08 04:01:04;;;;;;;5.93;3.72;;;16.20;99.90;;;;;;5017441;28;20033;-50
2023/09/08 04:03:29;;;;;;;8.10;3.95;;;16.20;99.90;;;;;;5000964;28;20036;-55
2023/09/08 04:05:55;;;;;;;8.32;3.80;;;16.20;99.90;;;;;;5001341;28;20037;-50
2023/09/08 04:08:21;;;;;;;8.52;3.97;;;16.20;99.90;;;;;;5035189;28;20032;-52
2023/09/08 04:10:46;;;;;;;6.50;3.85;;;16.20;99.90;;;;;;5038251;28;20021;-54
2023/09/08 04:13:13;;;;;;;6.80;4.13;;;16.20;99.90;;;;;;5021307;28;20025;-55
2023/09/08 04:15:39;;;;;;;6.45;3.63;;;16.20;99.90;;;;;;5038852;28;20036;-53
2023/09/08 04:18:05;;;;;;;8.45;4.07;;;16.20;99.90;;;;;;5039125;28;20022;-55
2023/09/08 04:20:31;;;;;;;6.60;3.80;;;16.10;99.90;;;;;;5021660;28;20056;-52
2023/09/08 04:22:56;;;;;;;7.80;3.78;;;16.10;99.90;;;;;;5020889;28;21352;-55
2023/09/08 04:25:22;;;;;;;7.72;4.20;;;16.10;99.90;;;;;;5021428;28;20033;-52
2023/09/08 04:27:48;;;;;;;8.00;4.32;;;16.10;99.90;;;;;;5021061;28;20026;-55
2023/09/08 04:30:14;;;;;;;6.55;4.25;;;16.10;99.90;;;;;;5021400;28;20100;-52
2023/09/08 04:32:40;;;;;;;6.25;3.50;;;16.10;99.90;;;;;;5020789;28;20077;-53
2023/09/08 04:35:07;;;;;;;8.13;4.35;;;16.10;99.90;;;;;;5038493;28;20049;-52
2023/09/08 04:37:32;;;;;;;9.93;3.85;;;16.00;99.90;;;;;;5021059;28;20482;-51
2023/09/08 04:39:59;;;;;;;6.05;3.47;;;16.00;99.90;;;;;;5021265;28;20033;-52
2023/09/08 04:42:25;;;;;;;6.57;3.80;;;16.00;99.90;;;;;;5020852;28;20398;-54
2023/09/08 04:44:51;;;;;;;9.02;4.32;;;16.00;99.90;;;;;;5020666;28;20116;-55
2023/09/08 04:47:16;;;;;;;8.18;3.78;;;15.90;99.90;;;;;;5020104;28;20049;-56
2023/09/08 04:49:42;;;;;;;7.57;3.95;;;15.90;99.90;;;;;;5037581;28;20048;-55
2023/09/08 04:52:08;;;;;;;8.05;4.30;;;15.90;99.90;;;;;;5020653;28;20026;-52
2023/09/08 04:54:34;;;;;;;6.45;3.85;;;15.90;99.90;;;;;;5020196;28;20029;-51
2023/09/08 04:57:00;;;;;;;6.35;3.78;;;15.90;99.90;;;;;;5020747;28;20036;-54
2023/09/08 04:59:26;;;;;;;8.27;4.20;;;15.80;99.90;;;;;;5037166;28;20037;-51
2023/09/08 05:01:53;;;;;;;6.60;4.18;;;15.80;99.90;;;;;;5020493;28;20039;-53
2023/09/08 05:04:19;;;;;;;9.00;4.60;;;15.80;99.90;;;;;;5020464;28;20112;-55
2023/09/08 05:06:45;;;;;;;8.07;4.45;;;15.80;99.90;;;;;;5020442;28;20239;-54
2023/09/08 05:09:12;;;;;;;6.95;3.95;;;15.80;99.90;;;;;;5020446;28;20021;-54
2023/09/08 05:11:38;;;;;;;8.15;4.05;;;15.80;99.90;;;;;;5019397;28;20120;-51
2023/09/08 05:14:04;;;;;;;7.88;3.85;;;15.80;99.90;;;;;;5019502;28;20465;-51
2023/09/08 05:16:45;;;;;;;8.90;4.22;;;15.80;99.90;;;;;;5019923;28;20025;-54
2023/09/08 05:19:15;;;;;;;8.68;4.35;;;15.80;99.90;;;;;;5003448;28;20033;-53
2023/09/08 05:21:43;;;;;;;7.53;4.57;;;15.80;99.90;;;;;;5003179;28;20029;-53
2023/09/08 05:24:09;;;;;;;7.10;3.97;;;15.80;99.90;;;;;;5003548;28;20500;-50
2023/09/08 05:26:38;;;;;;;6.30;4.07;;;15.80;99.90;;;;;;5020134;28;20049;-55
2023/09/08 05:29:04;;;;;;;7.50;4.45;;;15.80;99.90;;;;;;5020286;28;20029;-51
2023/09/08 05:31:30;;;;;;;6.43;4.00;;;15.80;99.90;;;;;;5037370;28;20239;-52
2023/09/08 05:33:56;;;;;;;8.07;4.40;;;15.80;99.90;;;;;;5019720;28;20083;-50
2023/09/08 05:36:22;;;;;;;6.88;4.43;;;15.80;99.90;;;;;;5020196;28;20025;-50
2023/09/08 05:38:48;;;;;;;7.13;4.10;;;15.90;99.90;;;;;;5019374;28;20079;-54
2023/09/08 05:41:13;;;;;;;7.57;4.00;;;15.80;99.90;;;;;;5019617;28;20030;-52
2023/09/08 05:43:40;;;;;;;8.75;4.47;;;15.90;99.90;;;;;;5002765;28;20030;-50
2023/09/08 05:46:06;;;;;;;7.90;4.78;;;15.90;99.90;;;;;;5003468;28;20060;-52
2023/09/08 05:48:32;;;;;;;11.15;4.80;;;16.00;99.90;;;;;;5019563;28;20017;-52
2023/09/08 05:50:58;;;;;;;8.13;4.32;;;16.00;99.90;;;;;;5019596;28;20159;-50
2023/09/08 05:53:25;;;;;;;7.95;3.95;;;16.00;99.90;;;;;;5018838;28;20476;-52
2023/09/08 05:55:51;;;;;;;8.13;4.07;;;16.10;99.90;;;;;;5019482;28;20053;-50
2023/09/08 05:58:16;;;;;;;8.77;4.45;;;16.20;99.90;;;;;;5018096;28;20056;-50
2023/09/08 06:00:42;;;;;;;9.13;4.78;;;16.30;99.90;;;;;;5018653;28;20034;-53
2023/09/08 06:03:08;;;;;;;9.23;4.63;;;16.30;99.90;;;;;;5018587;28;20120;-52
2023/09/08 06:05:34;;;;;;;7.75;4.70;;;16.40;99.90;;;;;;5036913;28;20026;-53
2023/09/08 06:07:59;;;;;;;8.55;3.95;;;16.40;99.90;;;;;;5036328;28;20381;-51
2023/09/08 06:10:25;;;;;;;9.10;4.53;;;16.50;99.90;;;;;;5017918;28;20561;-54
2023/09/08 06:12:51;;;;;;;7.70;4.32;;;16.60;99.90;;;;;;5017284;28;20036;-52
2023/09/08 06:15:17;;;;;;;8.32;4.18;;;16.70;99.90;;;;;;5017857;28;20049;-54
2023/09/08 06:17:43;;;;;;;7.68;4.20;;;16.80;99.90;;;;;;5017976;28;20106;-55
2023/09/08 06:20:09;;;;;;;7.78;4.22;;;16.90;99.90;;;;;;5017831;28;20482;-54
2023/09/08 06:22:35;;;;;;;7.03;3.63;;;17.00;99.90;;;;;;5017603;28;20036;-54
2023/09/08 06:25:00;;;;;;;7.30;4.22;;;17.00;99.90;;;;;;5017834;28;20120;-54
2023/09/08 06:27:26;;;;;;;9.00;4.28;;;17.10;99.90;;;;;;5018588;28;20490;-53
2023/09/08 06:29:52;;;;;;;8.65;4.25;;;17.20;99.90;;;;;;5002086;28;20080;-54
2023/09/08 06:32:18;;;;;;;9.55;3.92;;;17.30;99.90;;;;;;5017860;28;20025;-52
2023/09/08 06:34:46;;;;;;;9.90;4.00;;;17.40;99.90;;;;;;5018264;28;20107;-54
2023/09/08 06:37:12;;;;;;;8.88;4.53;;;17.50;99.90;;;;;;5018383;28;20026;-53
2023/09/08 06:39:37;;;;;;;8.07;4.25;;;17.60;99.90;;;;;;5018604;28;20100;-55
2023/09/08 06:42:04;;;;;;;7.38;4.25;;;17.70;99.90;;;;;;5001503;28;20060;-53
2023/09/08 06:44:29;;;;;;;9.10;4.75;;;17.80;99.90;;;;;;5018572;28;20036;-54
2023/09/08 06:46:56;;;;;;;7.95;4.28;;;17.90;99.90;;;;;;5018628;28;20025;-52
2023/09/08 06:49:24;;;;;;;8.52;4.10;;;18.00;99.90;;;;;;5019176;28;20132;-53
2023/09/08 06:51:49;;;;;;;8.10;4.13;;;18.10;99.90;;;;;;5018586;28;20479;-52
2023/09/08 06:54:15;;;;;;;7.18;3.95;;;18.20;99.90;;;;;;5018373;28;20106;-53
2023/09/08 06:56:43;;;;;;;8.33;4.10;;;18.30;99.90;;;;;;5018400;28;20056;-51
2023/09/08 06:59:08;;;;;;;7.10;3.70;;;18.50;99.90;;;;;;5018607;28;20037;-54
2023/09/08 07:01:35;;;;;;;7.07;3.70;;;18.70;99.90;;;;;;5018379;28;20608;-50
2023/09/08 07:04:01;;;;;;;6.45;3.72;;;18.80;99.90;;;;;;5018417;28;20033;-54
2023/09/08 07:06:27;;;;;;;6.80;3.75;;;19.00;99.90;;;;;;5018225;28;20394;-53
2023/09/08 07:08:53;;;;;;;7.90;3.95;;;19.10;99.90;;;;;;5018496;28;20026;-51
2023/09/08 07:11:20;;;;;;;7.15;3.85;;;19.30;99.90;;;;;;5018573;28;20025;-54
2023/09/08 07:13:46;;;;;;;7.97;3.90;;;19.30;99.90;;;;;;5018226;28;20037;-54
2023/09/08 07:16:12;;;;;;;7.15;4.05;;;19.40;99.90;;;;;;5018021;28;20025;-56
2023/09/08 07:18:38;;;;;;;6.10;3.88;;;19.50;99.90;;;;;;5002212;28;20025;-53
2023/09/08 07:21:06;;;;;;;6.30;3.40;;;19.60;99.90;;;;;;5018576;28;20033;-50
2023/09/08 07:23:32;;;;;;;7.80;4.03;;;19.80;99.90;;;;;;5035811;28;20548;-52
2023/09/08 07:25:58;;;;;;;8.82;3.45;;;19.90;99.90;;;;;;5036431;28;20034;-53
2023/09/08 07:28:28;;;;;;;8.68;3.83;;;20.00;99.90;;;;;;5018026;28;20029;-54
2023/09/08 07:31:06;;;;;;;6.25;3.40;;;20.20;99.90;;;;;;5018041;28;20036;-55
2023/09/08 07:33:34;;;;;;;9.90;3.38;;;20.20;99.90;;;;;;5035309;28;20033;-52
2023/09/08 07:36:05;;;;;;;6.03;2.80;;;20.40;99.90;;;;;;5002175;28;20084;-55
2023/09/08 07:38:31;;;;;;;6.63;3.10;;;20.90;99.90;;;;;;5017990;28;20052;-53
2023/09/08 07:40:59;;;;;;;5.60;3.28;;;21.10;99.90;;;;;;5017447;28;20026;-52
2023/09/08 07:43:25;;;;;;;5.68;2.85;;;21.20;99.90;;;;;;5017636;28;20029;-53
2023/09/08 07:45:51;;;;;;;4.78;3.10;;;21.40;99.90;;;;;;5020790;28;20060;-54
2023/09/08 07:48:17;;;;;;;5.88;3.05;;;21.80;99.90;;;;;;5039202;28;20029;-55
2023/09/08 07:50:42;;;;;;;4.75;2.70;;;22.00;99.90;;;;;;5039065;28;20034;-55
2023/09/08 07:53:08;;;;;;;6.97;3.05;;;22.10;99.90;;;;;;5039419;28;20022;-53
2023/09/08 07:55:33;;;;;;;5.88;3.00;;;22.40;99.90;;;;;;5039358;28;20029;-54
2023/09/08 07:58:02;;;;;;;6.28;2.92;;;22.50;99.90;;;;;;5005519;28;20033;-56
2023/09/08 08:00:28;;;;;;;5.82;3.13;;;22.50;99.90;;;;;;5039514;28;20052;-52
2023/09/08 08:02:55;;;;;;;6.18;3.08;;;22.80;99.90;;;;;;5039645;28;20029;-54
2023/09/08 08:05:21;;;;;;;6.40;3.60;;;22.90;99.90;;;;;;5040126;28;20029;-52
2023/09/08 08:11:34;;;;;;;4.28;2.63;;;23.30;99.90;;;;;;5024638;28;20057;-52
2023/09/08 08:14:00;;;;;;;7.47;3.17;;;23.50;99.90;;;;;;5033732;28;20029;-51
2023/09/08 08:16:26;;;;;;;8.32;5.05;;;23.60;99.90;;;;;;5033834;28;20029;-54
2023/09/08 08:18:52;;;;;;;6.07;3.00;;;23.70;99.90;;;;;;5031551;28;20033;-50
2023/09/08 08:21:24;;;;;;;7.13;2.78;;;23.90;99.90;;;;;;5033928;28;20033;-53
2023/09/08 08:23:50;;;;;;;9.90;5.05;;;24.10;99.90;;;;;;5038842;28;20041;-56
2023/09/08 08:26:16;;;;;;;5.68;3.45;;;24.20;99.90;;;;;;5039584;28;20441;-55
2023/09/08 08:28:41;;;;;;;5.80;3.25;;;24.40;99.90;;;;;;5038580;28;20052;-55
2023/09/08 08:31:07;;;;;;;7.22;3.83;;;24.50;99.90;;;;;;5038656;28;20029;-53
2023/09/08 08:33:33;;;;;;;7.15;2.55;;;24.60;99.90;;;;;;5038706;28;20057;-54
2023/09/08 08:35:59;;;;;;;3.70;2.42;;;24.70;99.90;;;;;;5020427;28;20374;-55
2023/09/08 08:38:24;;;;;;;6.75;3.30;;;24.80;99.90;;;;;;5020044;28;20037;-54
2023/09/08 08:40:50;;;;;;;7.07;3.40;;;24.90;99.90;;;;;;5020752;28;20044;-53
2023/09/08 08:43:15;;;;;;;4.82;2.60;;;25.00;99.90;;;;;;5038770;28;20037;-54
2023/09/08 08:45:43;;;;;;;4.82;2.85;;;25.10;99.90;;;;;;5038394;28;20026;-52
2023/09/08 08:48:09;;;;;;;8.65;2.92;;;25.20;99.90;;;;;;5037689;28;20113;-50
2023/09/08 08:50:36;;;;;;;5.50;3.10;;;25.30;99.90;;;;;;5020189;28;20147;-56
2023/09/08 08:53:02;;;;;;;3.55;2.35;;;25.40;99.90;;;;;;5038532;28;20029;-56
2023/09/08 08:55:30;;;;;;;4.63;3.00;;;25.50;99.90;;;;;;5037449;28;20059;-55
2023/09/08 08:58:02;;;;;;;5.00;2.70;;;25.50;99.80;;;;;;5037867;28;20045;-56
2023/09/08 09:00:28;;;;;;;5.93;2.70;;;25.60;99.90;;;;;;5021088;28;20539;-52
2023/09/08 09:02:55;;;;;;;7.32;2.80;;;25.70;99.60;;;;;;5038306;28;20040;-53
2023/09/08 09:05:21;;;;;;;6.50;2.75;;;25.70;99.90;;;;;;5038636;28;20025;-54
2023/09/08 09:07:49;;;;;;;6.18;3.13;;;25.90;99.70;;;;;;5039060;28;20032;-53
2023/09/08 09:10:15;;;;;;;6.07;3.22;;;25.90;99.10;;;;;;5020272;28;20040;-51
2023/09/08 09:12:41;;;;;;;6.95;3.55;;;26.00;99.50;;;;;;5020403;28;20083;-52
2023/09/08 09:15:11;;;;;;;5.43;2.70;;;26.10;99.00;;;;;;5020583;28;20412;-55
2023/09/08 09:17:37;;;;;;;4.72;2.90;;;26.10;99.00;;;;;;5020095;28;20452;-53
2023/09/08 09:20:17;;;;;;;6.53;3.35;;;26.20;99.80;;;;;;5038063;28;20045;-53
2023/09/08 09:22:44;;;;;;;6.03;3.00;;;26.40;98.80;;;;;;5038158;28;20428;-54
2023/09/08 09:25:10;;;;;;;5.68;3.10;;;26.50;98.50;;;;;;5019667;28;20037;-51
2023/09/08 09:27:38;;;;;;;5.45;3.25;;;26.50;98.40;;;;;;5037102;28;20026;-54
2023/09/08 09:30:04;;;;;;;4.93;2.95;;;26.50;98.50;;;;;;5036999;28;20389;-55
2023/09/08 09:32:31;;;;;;;5.22;2.88;;;26.60;98.50;;;;;;5019369;28;20038;-53
2023/09/08 09:34:57;;;;;;;4.10;2.90;;;26.70;98.90;;;;;;5037199;28;20504;-53
2023/09/08 09:37:23;;;;;;;5.47;2.80;;;26.80;99.20;;;;;;5038316;28;20350;-55
2023/09/08 09:39:53;;;;;;;5.07;2.90;;;26.90;97.70;;;;;;5036558;28;20086;-53
2023/09/08 09:42:20;;;;;;;4.00;2.80;;;27.00;97.80;;;;;;5037054;28;20344;-52
2023/09/08 09:44:52;;;;;;;6.13;3.15;;;27.00;97.90;;;;;;5036655;28;20038;-53
2023/09/08 09:47:19;;;;;;;5.57;3.00;;;27.10;98.30;;;;;;5018275;28;20030;-54
2023/09/08 09:49:47;;;;;;;6.20;2.83;;;27.10;97.80;;;;;;5035253;28;20034;-52
2023/09/08 09:52:15;;;;;;;6.15;2.80;;;27.30;98.00;;;;;;5021577;28;20029;-51
2023/09/08 09:54:42;;;;;;;5.32;3.00;;;27.50;97.70;;;;;;5036086;28;20041;-54
2023/09/08 09:57:12;;;;;;;5.32;3.00;;;27.70;99.00;;;;;;5020411;28;20067;-56
2023/09/08 09:59:40;;;;;;;5.07;3.00;;;27.90;97.30;;;;;;5036514;28;20112;-55
2023/09/08 10:02:12;;;;;;;5.97;2.90;;;28.20;96.20;;;;;;5036824;28;20108;-53
2023/09/08 10:04:40;;;;;;;5.32;2.90;;;28.30;96.10;;;;;;5032430;28;20044;-54
2023/09/08 10:07:06;;;;;;;4.47;2.70;;;28.40;95.50;;;;;;5035434;28;20026;-56
2023/09/08 10:09:32;;;;;;;8.32;3.10;;;28.30;96.10;;;;;;5036214;28;20018;-53
2023/09/08 10:12:03;;;;;;;4.40;2.72;;;28.40;95.90;;;;;;5019151;28;20116;-54
2023/09/08 10:14:31;;;;;;;4.53;2.78;;;28.50;95.80;;;;;;5036501;28;20074;-55
2023/09/08 10:16:59;;;;;;;5.50;2.78;;;28.70;95.90;;;;;;5036936;28;20029;-55
2023/09/08 10:19:26;;;;;;;5.57;2.75;;;28.90;94.70;;;;;;5035747;28;20032;-54
2023/09/08 10:21:55;;;;;;;4.93;2.97;;;28.90;96.00;;;;;;5036694;28;20029;-54
2023/09/08 10:24:28;;;;;;;4.72;3.10;;;29.10;94.90;;;;;;5036831;28;20064;-54
2023/09/08 10:27:10;;;;;;;6.47;3.38;;;29.00;94.80;;;;;;5036650;28;20026;-54
2023/09/08 10:29:37;;;;;;;6.25;3.20;;;29.10;95.10;;;;;;5036350;28;20088;-53
2023/09/08 10:32:04;;;;;;;4.28;2.78;;;29.20;95.00;;;;;;5036340;28;20032;-54
2023/09/08 10:34:31;;;;;;;4.40;2.90;;;29.50;94.00;;;;;;5037018;28;20033;-50
2023/09/08 10:36:57;;;;;;;4.97;3.03;;;29.90;93.70;;;;;;5036654;28;20083;-54
2023/09/08 10:39:31;;;;;;;4.28;2.92;;;30.00;93.00;;;;;;5035684;28;20651;-55
2023/09/08 10:42:20;;;;;;;5.43;2.95;;;30.20;93.60;;;;;;5035930;28;20074;-54
2023/09/08 10:44:49;;;;;;;6.22;3.17;;;30.50;92.90;;;;;;5036055;28;20026;-53
2023/09/08 10:47:24;;;;;;;5.18;2.55;;;30.70;92.80;;;;;;5036216;28;20422;-53
2023/09/08 10:49:53;;;;;;;4.28;2.65;;;30.80;92.80;;;;;;5036564;28;20048;-51
2023/09/08 10:52:22;;;;;;;6.85;3.30;;;30.60;92.10;;;;;;5036063;28;20482;-54
2023/09/08 10:54:49;;;;;;;5.38;3.20;;;30.50;92.00;;;;;;5035919;28;20029;-53
2023/09/08 10:57:17;;;;;;;6.90;3.20;;;30.40;91.60;;;;;;5035912;28;20076;-51
2023/09/08 11:00:00;;;;;;;5.97;3.23;;;30.20;92.80;;;;;;5022093;28;20045;-53
2023/09/08 11:02:36;;;;;;;4.88;3.63;;;30.10;92.70;;;;;;5028548;28;20432;-52
2023/09/08 11:05:04;;;;;;;5.60;3.13;;;30.20;92.20;;;;;;5043862;28;20060;-53
2023/09/08 11:07:32;;;;;;;8.05;3.38;;;30.10;91.90;;;;;;5021368;28;20053;-49
2023/09/08 11:09:57;;;;;;;5.20;3.03;;;30.10;93.20;;;;;;5020683;28;20136;-53
2023/09/08 11:12:26;;;;;;;4.93;3.00;;;30.00;93.00;;;;;;5038947;28;20056;-50
2023/09/08 11:14:52;;;;;;;3.88;2.58;;;29.80;93.20;;;;;;5038767;28;20044;-49
2023/09/08 11:17:18;;;;;;;5.70;3.13;;;29.50;92.90;;;;;;5038214;28;20037;-50
2023/09/08 11:19:49;;;;;;;4.20;2.72;;;29.50;92.80;;;;;;5040789;28;20056;-50
2023/09/08 11:22:16;;;;;;;5.32;3.33;;;29.50;92.40;;;;;;5042500;28;20033;-53
2023/09/08 11:24:42;;;;;;;4.82;3.20;;;29.40;92.90;;;;;;5041308;28;20124;-49
2023/09/08 11:27:09;;;;;;;5.13;3.13;;;29.30;93.00;;;;;;5024097;28;20029;-51
2023/09/08 11:29:35;;;;;;;5.78;3.33;;;29.50;93.40;;;;;;5041694;28;20037;-53
2023/09/08 11:32:03;;;;;;;4.40;3.00;;;29.80;92.40;;;;;;5042081;28;20026;-52
2023/09/08 11:34:29;;;;;;;4.53;2.95;;;29.90;93.20;;;;;;5041844;28;20040;-53
2023/09/08 11:36:56;;;;;;;5.00;2.90;;;29.90;93.40;;;;;;5041624;28;20041;-53
2023/09/08 11:39:27;;;;;;;7.53;3.20;;;29.90;92.80;;;;;;5041015;28;20041;-52
2023/09/08 11:41:54;;;;;;;4.80;3.08;;;29.90;92.50;;;;;;5041114;28;20076;-52
2023/09/08 11:44:20;;;;;;;4.90;3.20;;;30.00;91.50;;;;;;5041027;28;20099;-51
2023/09/08 11:46:48;;;;;;;3.97;2.80;;;30.10;91.70;;;;;;5042002;28;20068;-53
2023/09/08 11:49:13;;;;;;;3.72;3.08;;;30.20;91.80;;;;;;5040015;28;20477;-52
2023/09/08 11:51:39;;;;;;;6.93;3.60;;;30.30;91.90;;;;;;5041061;28;20075;-52
2023/09/08 11:54:05;;;;;;;6.88;3.17;;;30.30;90.80;;;;;;5041777;28;20025;-50
2023/09/08 11:56:32;;;;;;;6.57;3.30;;;30.10;91.80;;;;;;5041290;28;20377;-54
2023/09/08 11:58:58;;;;;;;4.22;2.92;;;30.10;91.30;;;;;;5039158;28;20328;-54
2023/09/08 12:01:24;;;;;;;7.00;3.70;;;30.20;91.20;;;;;;5039327;28;20039;-55
2023/09/08 12:03:54;;;;;;;4.78;3.25;;;30.10;91.20;;;;;;5039452;28;20037;-52
2023/09/08 12:06:19;;;;;;;4.40;3.08;;;30.00;91.40;;;;;;5039551;28;20488;-56
2023/09/08 12:08:45;;;;;;;4.97;3.13;;;29.90;91.20;;;;;;5020901;28;20173;-56
2023/09/08 12:11:12;;;;;;;4.32;2.67;;;29.90;91.70;;;;;;5039642;28;20025;-54
2023/09/08 12:13:37;;;;;;;5.20;3.33;;;29.90;91.90;;;;;;5039694;28;20057;-53
2023/09/08 12:16:21;;;;;;;4.25;3.05;;;30.00;91.60;;;;;;5022756;28;20033;-51
2023/09/08 12:18:49;;;;;;;6.57;3.20;;;30.00;90.70;;;;;;5022984;28;20382;-52
2023/09/08 12:21:15;;;;;;;5.07;3.00;;;30.00;91.20;;;;;;5041055;28;20045;-54
2023/09/08 12:23:49;;;;;;;5.25;3.00;;;29.90;91.50;;;;;;5040251;28;20032;-49
2023/09/08 12:26:16;;;;;;;5.38;3.08;;;29.80;91.50;;;;;;5040800;28;20033;-53
2023/09/08 12:28:42;;;;;;;6.13;3.25;;;29.70;91.80;;;;;;5040395;28;20469;-51
2023/09/08 12:31:09;;;;;;;4.47;2.80;;;29.90;91.10;;;;;;5039225;28;20033;-53
2023/09/08 12:33:35;;;;;;;4.57;2.88;;;29.90;90.90;;;;;;5040195;28;20061;-54
2023/09/08 12:36:14;;;;;;;4.40;3.20;;;29.90;92.00;;;;;;5022190;28;20485;-51
2023/09/08 12:38:39;;;;;;;5.88;3.00;;;29.80;91.40;;;;;;5039119;28;20056;-50
2023/09/08 12:41:05;;;;;;;6.60;3.30;;;29.80;92.00;;;;;;5039432;28;20112;-52
2023/09/08 12:43:30;;;;;;;5.43;3.33;;;29.80;91.70;;;;;;5020868;28;20366;-54
2023/09/08 12:45:56;;;;;;;4.20;2.90;;;29.70;91.40;;;;;;5039359;28;20022;-52
2023/09/08 12:48:22;;;;;;;6.78;3.45;;;29.60;91.80;;;;;;5021915;28;20053;-49
2023/09/08 12:50:48;;;;;;;5.85;3.30;;;29.70;91.50;;;;;;5021238;28;20040;-52